Aviation Digital Data Service (ADDS)

Output produced by METARs form (0508 UTC 21 September 2017)
found at http://www.aviationweather.gov/adds/metars/
 
LJLJ 210500Z VRB01KT 4000 R30/0350V0500N BCFG BR FEW060 04/04 Q1018 NOSIG
TAF LJLJ 210500Z 2106/2206 VRB02KT 0300 FG VV001 
     BECMG 2106/2108 9999 NSW FEW060 
     BECMG 2122/2201 3500 BR 
     BECMG 2201/2204 0300 FG VV001
       
LJMB 210500Z VRB03KT CAVOK 06/04 Q1018
TAF LJMB 210500Z 2106/2206 18005KT CAVOK 
     TEMPO 2108/2118 35010KT
       
LJPZ 210500Z 12009KT CAVOK 08/06 Q1018
TAF LJPZ 210500Z 2106/2115 12005KT CAVOK 
     BECMG 2107/2109 31005KT 
     BECMG 2112/2115 25005KT